BEL4RER LEBB-EBBR
Flight info
| Callsign | BEL4RER |
|---|---|
| Flight time | N/A |
| Altitude | 34000 |
| Route | SSN L176 LUSEM DCT LULUT DCT ADABI DCT BOKNO UN858 VANAD UN874 BAMES UT191 PODEM UN873 BAZOS DCT BELDI DCT VEKIN Z173 ARVOL |
| Aircraft | A320/M-SDE3FGHIRWY/LB1 |
Departure
| Time | N/A |
|---|---|
| Airport | Bilbao Airport (LEBB) |
Arrival
| Time | 2026-05-01 14:19 |
|---|---|
| Airport | Brussels Airport (EBBR) |
| Time | Latitude | Longitude | Altitude | Speed | Heading |
|---|---|---|---|---|---|
| 2026-05-01 13:41 | 48.21701 | 1.10013 | 34196 ft | 454 kts | 21° |
| 2026-05-01 13:42 | 48.24667 | 1.11529 | 34197 ft | 454 kts | 21° |
| 2026-05-01 13:42 | 48.29640 | 1.14053 | 34198 ft | 454 kts | 21° |
| 2026-05-01 13:43 | 48.35581 | 1.17076 | 34200 ft | 454 kts | 21° |
| 2026-05-01 13:43 | 48.41552 | 1.20142 | 34199 ft | 453 kts | 21° |
| 2026-05-01 13:44 | 48.47528 | 1.23219 | 34199 ft | 453 kts | 21° |
| 2026-05-01 13:44 | 48.53503 | 1.26294 | 34198 ft | 454 kts | 21° |
| 2026-05-01 13:45 | 48.59490 | 1.29353 | 34199 ft | 454 kts | 21° |
| 2026-05-01 13:45 | 48.65491 | 1.32360 | 34200 ft | 454 kts | 20° |
| 2026-05-01 13:46 | 48.71492 | 1.35377 | 34202 ft | 453 kts | 21° |
| 2026-05-01 13:46 | 48.77451 | 1.38394 | 34202 ft | 453 kts | 21° |
| 2026-05-01 13:47 | 48.83433 | 1.41431 | 34202 ft | 454 kts | 20° |
| 2026-05-01 13:47 | 48.89436 | 1.44475 | 34214 ft | 454 kts | 21° |
| 2026-05-01 13:48 | 48.95386 | 1.47514 | 34218 ft | 454 kts | 21° |
| 2026-05-01 13:48 | 49.01568 | 1.49559 | 34209 ft | 456 kts | 10° |
| 2026-05-01 13:49 | 49.07843 | 1.51011 | 34201 ft | 456 kts | 10° |
| 2026-05-01 13:49 | 49.14128 | 1.52483 | 34199 ft | 457 kts | 11° |
| 2026-05-01 13:50 | 49.20421 | 1.53972 | 34195 ft | 456 kts | 12° |
| 2026-05-01 13:50 | 49.26317 | 1.57099 | 34196 ft | 450 kts | 31° |
| 2026-05-01 13:51 | 49.31286 | 1.62766 | 34198 ft | 444 kts | 47° |
| 2026-05-01 13:51 | 49.35763 | 1.69315 | 34198 ft | 444 kts | 47° |
| 2026-05-01 13:52 | 49.40226 | 1.75863 | 34200 ft | 444 kts | 47° |
| 2026-05-01 13:52 | 49.44704 | 1.82441 | 34201 ft | 444 kts | 47° |
| 2026-05-01 13:53 | 49.49149 | 1.88998 | 34201 ft | 444 kts | 47° |
| 2026-05-01 13:53 | 49.55843 | 1.98885 | 33893 ft | 444 kts | 47° |
| 2026-05-01 13:54 | 49.58065 | 2.02187 | 33638 ft | 442 kts | 47° |
| 2026-05-01 13:54 | 49.60272 | 2.05471 | 33388 ft | 440 kts | 47° |
| 2026-05-01 13:54 | 49.62466 | 2.08739 | 33138 ft | 437 kts | 47° |
| 2026-05-01 13:54 | 49.64653 | 2.12000 | 32886 ft | 435 kts | 47° |
| 2026-05-01 13:55 | 49.66837 | 2.15254 | 32642 ft | 433 kts | 47° |
| 2026-05-01 13:55 | 49.68999 | 2.18478 | 32387 ft | 431 kts | 47° |
| 2026-05-01 13:55 | 49.71154 | 2.21700 | 32137 ft | 429 kts | 47° |
| 2026-05-01 13:55 | 49.73297 | 2.24911 | 31887 ft | 427 kts | 47° |
| 2026-05-01 13:56 | 49.75403 | 2.28065 | 31637 ft | 425 kts | 47° |
| 2026-05-01 13:56 | 49.77522 | 2.31235 | 31385 ft | 423 kts | 47° |
| 2026-05-01 13:56 | 49.79634 | 2.34398 | 31135 ft | 421 kts | 47° |
| 2026-05-01 13:56 | 49.81738 | 2.37558 | 30882 ft | 419 kts | 47° |
| 2026-05-01 13:57 | 49.83844 | 2.40729 | 30630 ft | 417 kts | 48° |
| 2026-05-01 13:57 | 49.85889 | 2.43815 | 30385 ft | 415 kts | 47° |
| 2026-05-01 13:57 | 49.87957 | 2.46937 | 30134 ft | 413 kts | 47° |
| 2026-05-01 13:57 | 49.90009 | 2.50031 | 29885 ft | 411 kts | 47° |
| 2026-05-01 13:58 | 49.92056 | 2.53125 | 29634 ft | 409 kts | 47° |
| 2026-05-01 13:58 | 49.94092 | 2.56208 | 29383 ft | 407 kts | 48° |
| 2026-05-01 13:58 | 49.96122 | 2.59292 | 29132 ft | 406 kts | 48° |
| 2026-05-01 13:58 | 49.98133 | 2.62355 | 28881 ft | 405 kts | 48° |
| 2026-05-01 13:59 | 50.00145 | 2.65420 | 28626 ft | 403 kts | 48° |
| 2026-05-01 13:59 | 50.02142 | 2.68463 | 28377 ft | 402 kts | 47° |
| 2026-05-01 13:59 | 50.04133 | 2.71498 | 28125 ft | 401 kts | 47° |
| 2026-05-01 13:59 | 50.06118 | 2.74530 | 27858 ft | 396 kts | 47° |
| 2026-05-01 14:00 | 50.08074 | 2.77521 | 27418 ft | 393 kts | 47° |
| 2026-05-01 14:00 | 50.10020 | 2.80499 | 26981 ft | 390 kts | 47° |
| 2026-05-01 14:00 | 50.11948 | 2.83449 | 26546 ft | 387 kts | 47° |
| 2026-05-01 14:00 | 50.13838 | 2.86348 | 26120 ft | 384 kts | 47° |
| 2026-05-01 14:01 | 50.15741 | 2.89274 | 25671 ft | 381 kts | 47° |
| 2026-05-01 14:01 | 50.17616 | 2.92161 | 25244 ft | 378 kts | 47° |
| 2026-05-01 14:01 | 50.19481 | 2.95033 | 24797 ft | 375 kts | 47° |
| 2026-05-01 14:01 | 50.21330 | 2.97882 | 24356 ft | 372 kts | 47° |
| 2026-05-01 14:02 | 50.23170 | 3.00716 | 23898 ft | 369 kts | 47° |
| 2026-05-01 14:02 | 50.24990 | 3.03529 | 23445 ft | 367 kts | 47° |
| 2026-05-01 14:02 | 50.26796 | 3.06320 | 22994 ft | 365 kts | 47° |
| 2026-05-01 14:02 | 50.28599 | 3.09109 | 22536 ft | 363 kts | 47° |
| 2026-05-01 14:03 | 50.30394 | 3.11888 | 22088 ft | 362 kts | 47° |
| 2026-05-01 14:03 | 50.32173 | 3.14648 | 21645 ft | 360 kts | 47° |
| 2026-05-01 14:03 | 50.33929 | 3.17378 | 21204 ft | 358 kts | 47° |
| 2026-05-01 14:03 | 50.35694 | 3.20132 | 20759 ft | 357 kts | 47° |
| 2026-05-01 14:04 | 50.37446 | 3.22866 | 20321 ft | 355 kts | 47° |
| 2026-05-01 14:04 | 50.39192 | 3.25588 | 19885 ft | 354 kts | 47° |
| 2026-05-01 14:04 | 50.40942 | 3.28319 | 19439 ft | 353 kts | 47° |
| 2026-05-01 14:04 | 50.42088 | 3.30107 | 19153 ft | 351 kts | 47° |
| 2026-05-01 14:05 | 50.44400 | 3.33717 | 18578 ft | 349 kts | 47° |
| 2026-05-01 14:05 | 50.46102 | 3.36378 | 18155 ft | 348 kts | 48° |
| 2026-05-01 14:05 | 50.47806 | 3.39047 | 17736 ft | 346 kts | 48° |
| 2026-05-01 14:05 | 50.49515 | 3.41728 | 17312 ft | 345 kts | 48° |
| 2026-05-01 14:06 | 50.51210 | 3.44395 | 16898 ft | 344 kts | 48° |
| 2026-05-01 14:06 | 50.52900 | 3.47056 | 16490 ft | 343 kts | 48° |
| 2026-05-01 14:06 | 50.54611 | 3.49651 | 16079 ft | 343 kts | 43° |
| 2026-05-01 14:06 | 50.56558 | 3.51871 | 15687 ft | 343 kts | 37° |
| 2026-05-01 14:07 | 50.58514 | 3.54003 | 15263 ft | 343 kts | 37° |
| 2026-05-01 14:07 | 50.60477 | 3.56147 | 14845 ft | 341 kts | 37° |
| 2026-05-01 14:07 | 50.62400 | 3.58253 | 14445 ft | 340 kts | 37° |
| 2026-05-01 14:08 | 50.66264 | 3.62510 | 13623 ft | 337 kts | 38° |
| 2026-05-01 14:08 | 50.68182 | 3.64626 | 13222 ft | 335 kts | 38° |
| 2026-05-01 14:08 | 50.70084 | 3.66727 | 12801 ft | 334 kts | 38° |
| 2026-05-01 14:08 | 50.71986 | 3.68833 | 12376 ft | 332 kts | 38° |
| 2026-05-01 14:09 | 50.73874 | 3.70924 | 11965 ft | 331 kts | 38° |
| 2026-05-01 14:09 | 50.75754 | 3.73009 | 11561 ft | 329 kts | 38° |
| 2026-05-01 14:09 | 50.77623 | 3.75088 | 11147 ft | 327 kts | 38° |
| 2026-05-01 14:09 | 50.79484 | 3.77161 | 10728 ft | 326 kts | 37° |
| 2026-05-01 14:10 | 50.81340 | 3.79226 | 10325 ft | 323 kts | 37° |
| 2026-05-01 14:10 | 50.83143 | 3.81230 | 10196 ft | 312 kts | 37° |
| 2026-05-01 14:10 | 50.84908 | 3.83197 | 9928 ft | 306 kts | 37° |
| 2026-05-01 14:10 | 50.86621 | 3.85136 | 9545 ft | 304 kts | 40° |
| 2026-05-01 14:11 | 50.88104 | 3.87519 | 9128 ft | 301 kts | 56° |
| 2026-05-01 14:11 | 50.90318 | 3.93108 | 8356 ft | 296 kts | 61° |
| 2026-05-01 14:11 | 50.91298 | 3.95916 | 7944 ft | 292 kts | 72° |
| 2026-05-01 14:12 | 50.91724 | 3.99006 | 7553 ft | 285 kts | 91° |
| 2026-05-01 14:12 | 50.91515 | 4.02072 | 7147 ft | 278 kts | 109° |
| 2026-05-01 14:12 | 50.90757 | 4.04829 | 6560 ft | 270 kts | 122° |
| 2026-05-01 14:12 | 50.89851 | 4.07371 | 5869 ft | 268 kts | 122° |
| 2026-05-01 14:13 | 50.88940 | 4.09933 | 5201 ft | 265 kts | 121° |
| 2026-05-01 14:13 | 50.88344 | 4.11612 | 4763 ft | 262 kts | 121° |
| 2026-05-01 14:13 | 50.87177 | 4.14914 | 4290 ft | 241 kts | 121° |
| 2026-05-01 14:13 | 50.86559 | 4.17219 | 4224 ft | 223 kts | 107° |
| 2026-05-01 14:14 | 50.86396 | 4.19664 | 3676 ft | 223 kts | 89° |
| 2026-05-01 14:14 | 50.86641 | 4.22042 | 3093 ft | 215 kts | 83° |
| 2026-05-01 14:14 | 50.86908 | 4.24314 | 2756 ft | 198 kts | 83° |
| 2026-05-01 14:14 | 50.87138 | 4.26289 | 2670 ft | 168 kts | 83° |
| 2026-05-01 14:15 | 50.87335 | 4.27997 | 2709 ft | 151 kts | 84° |
| 2026-05-01 14:15 | 50.87513 | 4.29567 | 2688 ft | 144 kts | 85° |
| 2026-05-01 14:15 | 50.87648 | 4.31115 | 2415 ft | 140 kts | 88° |
| 2026-05-01 14:15 | 50.87721 | 4.32664 | 1998 ft | 144 kts | 90° |
| 2026-05-01 14:16 | 50.87752 | 4.34245 | 1628 ft | 145 kts | 91° |
| 2026-05-01 14:16 | 50.87813 | 4.35800 | 1421 ft | 140 kts | 87° |
| 2026-05-01 14:16 | 50.87931 | 4.37337 | 1149 ft | 141 kts | 80° |
| 2026-05-01 14:16 | 50.88155 | 4.38840 | 911 ft | 138 kts | 76° |
| 2026-05-01 14:17 | 50.88496 | 4.40278 | 784 ft | 140 kts | 68° |
| 2026-05-01 14:17 | 50.88866 | 4.41699 | 547 ft | 139 kts | 71° |
| 2026-05-01 14:17 | 50.89205 | 4.43112 | 422 ft | 139 kts | 72° |
| 2026-05-01 14:17 | 50.89591 | 4.44543 | 321 ft | 139 kts | 66° |
| 2026-05-01 14:18 | 50.89998 | 4.45917 | 215 ft | 139 kts | 67° |
| 2026-05-01 14:18 | 50.90379 | 4.47298 | 152 ft | 128 kts | 68° |
| 2026-05-01 14:18 | 50.90704 | 4.48448 | 138 ft | 101 kts | 62° |
| 2026-05-01 14:18 | 50.90880 | 4.49029 | 134 ft | 74 kts | 65° |
| 2026-05-01 14:19 | 50.90975 | 4.49361 | 133 ft | 6 kts | 72° |
| 2026-05-01 14:19 | 50.90980 | 4.49404 | 133 ft | 6 kts | 84° |